Terminal Aerodrome Forecast
Issued by NWS Pocatello, ID

Home | Current Version | Previous Version | Text Only | Print | Product List | Glossary On
Versions: 1 2 3 4 5 6 7 8 9 10 11 12 13 14 15 16 17
000
FTUS45 KPIH 231100
TAFBYI
TAF
KBYI 231120Z 2312/2412 25017G27KT P6SM SCT120
     FM232000 27012G22KT P6SM SCT120
     FM240300 23009KT P6SM BKN150=

USA.gov is the U.S. government's official web portal to all federal, state and local government web resources and services.